createdAt,value
2023-04-07T00:01:13.985Z,5.60
2023-04-07T00:03:42.480Z,5.90
2023-04-07T00:06:12.304Z,5.53
2023-04-07T00:08:40.746Z,6.10
2023-04-07T00:11:09.640Z,5.37
2023-04-07T00:13:37.924Z,5.73
2023-04-07T00:16:06.420Z,5.40
2023-04-07T00:18:34.861Z,6.10
2023-04-07T00:21:03.108Z,5.50
2023-04-07T00:23:32.930Z,5.43
2023-04-07T00:26:01.262Z,5.50
2023-04-07T00:28:29.672Z,6.17
2023-04-07T00:30:57.983Z,5.67
2023-04-07T00:33:26.331Z,6.20
2023-04-07T00:35:55.068Z,5.93
2023-04-07T00:38:23.406Z,5.50
2023-04-07T00:40:59.210Z,5.87
2023-04-07T00:43:27.517Z,5.67
2023-04-07T00:45:56.092Z,5.90
2023-04-07T00:48:24.643Z,5.50
2023-04-07T00:50:53.171Z,6.63
2023-04-07T00:53:21.948Z,5.83
2023-04-07T00:55:50.458Z,5.80
2023-04-07T00:58:20.244Z,5.63
2023-04-07T01:00:53.038Z,6.07
2023-04-07T01:03:36.210Z,5.67
2023-04-07T01:06:08.701Z,5.60
2023-04-07T01:08:46.071Z,6.60
2023-04-07T01:11:21.604Z,6.27
2023-04-07T01:13:53.409Z,6.00
2023-04-07T01:16:28.779Z,5.90
2023-04-07T01:19:01.339Z,5.73
2023-04-07T01:21:31.029Z,6.70
2023-04-07T01:24:37.648Z,6.63
2023-04-07T01:27:18.030Z,5.97
2023-04-07T01:29:50.660Z,6.40
2023-04-07T01:32:21.714Z,6.30
2023-04-07T01:34:52.118Z,6.27
2023-04-07T01:37:21.716Z,6.13
2023-04-07T01:39:50.312Z,6.77
2023-04-07T01:42:20.672Z,6.40
2023-04-07T01:44:52.475Z,6.43
2023-04-07T01:47:21.266Z,6.90
2023-04-07T01:49:51.447Z,7.10
2023-04-07T01:52:20.142Z,6.53
2023-04-07T01:54:49.484Z,5.87
2023-04-07T01:57:17.903Z,6.87
2023-04-07T01:59:46.214Z,6.90
2023-04-07T02:02:16.350Z,6.40
2023-04-07T02:04:53.932Z,7.00
2023-04-07T02:07:29.752Z,6.63
2023-04-07T02:10:01.447Z,7.90
2023-04-07T02:12:33.165Z,6.67
2023-04-07T02:15:02.697Z,6.47
2023-04-07T02:17:36.296Z,7.00
2023-04-07T02:20:06.547Z,6.80
2023-04-07T02:22:35.082Z,6.60
2023-04-07T02:25:03.630Z,6.80
2023-04-07T02:27:31.982Z,6.63
2023-04-07T02:30:00.568Z,6.30
2023-04-07T02:32:28.910Z,5.73
2023-04-07T02:34:58.832Z,7.60
2023-04-07T02:37:27.128Z,6.50
2023-04-07T02:39:55.616Z,6.07
2023-04-07T02:42:24.042Z,6.20
2023-04-07T02:44:52.553Z,5.73
2023-04-07T02:47:20.972Z,7.37
2023-04-07T02:49:49.483Z,6.17
2023-04-07T02:52:19.365Z,7.80
2023-04-07T02:54:47.851Z,7.10
2023-04-07T02:57:16.266Z,6.43
2023-04-07T02:59:44.528Z,6.80
2023-04-07T03:02:13.262Z,7.67
2023-04-07T03:04:41.995Z,7.33
2023-04-07T03:07:10.357Z,7.67
2023-04-07T03:09:40.059Z,7.93
2023-04-07T03:12:08.822Z,9.03
2023-04-07T03:14:37.386Z,8.67
2023-04-07T03:17:06.157Z,8.23
2023-04-07T03:19:34.558Z,8.30
2023-04-07T03:22:02.877Z,8.40
2023-04-07T03:24:31.409Z,8.60
2023-04-07T03:27:02.190Z,8.00
2023-04-07T03:29:30.449Z,8.03
2023-04-07T03:31:58.765Z,7.23
2023-04-07T03:34:27.213Z,8.67
2023-04-07T03:36:55.720Z,9.03
2023-04-07T03:39:24.045Z,9.20
2023-04-07T03:41:52.481Z,9.20
2023-04-07T03:44:22.266Z,9.30
2023-04-07T03:46:50.953Z,8.10
2023-04-07T03:49:19.319Z,8.30
2023-04-07T03:51:47.705Z,8.77
2023-04-07T03:54:16.145Z,7.47
2023-04-07T03:56:46.063Z,8.57
2023-04-07T03:59:14.449Z,7.60
2023-04-07T04:01:44.341Z,8.17
2023-04-07T04:04:12.888Z,8.60
2023-04-07T04:06:41.438Z,8.10
2023-04-07T04:09:09.936Z,7.90
2023-04-07T04:11:38.284Z,8.00
2023-04-07T04:14:06.780Z,9.37
2023-04-07T04:16:35.625Z,9.27
2023-04-07T04:19:05.560Z,9.83
2023-04-07T04:21:34.072Z,8.50
2023-04-07T04:24:02.468Z,9.40
2023-04-07T04:26:30.880Z,9.03
2023-04-07T04:28:59.130Z,9.77
2023-04-07T04:31:27.427Z,8.30
2023-04-07T04:33:56.212Z,8.90
2023-04-07T04:36:26.388Z,9.00
2023-04-07T04:38:54.693Z,8.87
2023-04-07T04:41:23.193Z,8.73
2023-04-07T04:43:51.640Z,9.10
2023-04-07T04:46:19.965Z,10.13
2023-04-07T04:48:48.434Z,8.80
2023-04-07T04:51:16.831Z,9.07
2023-04-07T04:53:46.658Z,8.97
2023-04-07T04:56:15.043Z,10.00
2023-04-07T04:58:46.528Z,9.27
2023-04-07T05:01:15.197Z,9.27
2023-04-07T05:03:43.886Z,9.50
2023-04-07T05:06:12.290Z,10.07
2023-04-07T05:08:40.602Z,9.40
2023-04-07T05:11:10.442Z,9.43
2023-04-07T05:13:38.767Z,8.90
2023-04-07T05:16:07.905Z,9.53
2023-04-07T05:18:36.584Z,9.50
2023-04-07T05:21:05.331Z,9.17
2023-04-07T05:23:33.659Z,9.33
2023-04-07T05:26:02.065Z,10.10
2023-04-07T05:28:32.077Z,9.30
2023-04-07T05:31:01.536Z,10.23
2023-04-07T05:33:29.917Z,9.60
2023-04-07T05:35:58.440Z,8.80
2023-04-07T05:38:26.896Z,10.37
2023-04-07T05:40:55.211Z,10.73
2023-04-07T05:43:23.589Z,10.17
2023-04-07T05:45:53.545Z,9.37
2023-04-07T05:48:21.903Z,9.43
2023-04-07T05:50:50.225Z,9.73
2023-04-07T05:53:18.606Z,10.40
2023-04-07T05:55:46.883Z,11.23
2023-04-07T05:58:15.236Z,9.87
2023-04-07T06:00:43.604Z,10.40
2023-04-07T06:03:13.426Z,10.90
2023-04-07T06:05:43.754Z,10.20
2023-04-07T06:08:12.131Z,10.00
2023-04-07T06:10:41.606Z,10.20
2023-04-07T06:13:09.945Z,11.10
2023-04-07T06:15:38.317Z,9.90
2023-04-07T06:18:06.816Z,10.03
2023-04-07T06:20:37.080Z,9.77
2023-04-07T06:23:05.387Z,10.53
2023-04-07T06:25:33.744Z,9.90
2023-04-07T06:28:02.206Z,10.67
2023-04-07T06:30:30.862Z,10.20
2023-04-07T06:32:59.249Z,10.47
2023-04-07T06:35:28.111Z,10.17
2023-04-07T06:37:58.292Z,11.03
2023-04-07T06:40:26.725Z,10.53
2023-04-07T06:42:56.650Z,10.47
2023-04-07T06:45:25.081Z,10.90
2023-04-07T06:47:53.439Z,9.80
2023-04-07T06:50:22.505Z,10.43
2023-04-07T06:52:50.766Z,10.03
2023-04-07T06:55:20.827Z,10.63
2023-04-07T06:57:50.899Z,11.60
2023-04-07T07:00:20.281Z,10.17
2023-04-07T07:02:48.800Z,11.03
2023-04-07T07:05:17.572Z,10.80
2023-04-07T07:07:45.902Z,10.50
2023-04-07T07:10:14.247Z,11.60
2023-04-07T07:12:44.283Z,11.47
2023-04-07T07:15:13.021Z,11.17
2023-04-07T07:17:41.637Z,10.30
2023-04-07T07:20:11.237Z,10.17
2023-04-07T07:22:39.737Z,10.77
2023-04-07T07:25:08.787Z,11.47
2023-04-07T07:27:37.101Z,11.80
2023-04-07T07:30:08.730Z,12.37
2023-04-07T07:32:37.679Z,11.03
2023-04-07T07:35:08.629Z,10.33
2023-04-07T07:37:37.287Z,10.50
2023-04-07T07:40:06.042Z,10.90
2023-04-07T07:42:34.484Z,10.37
2023-04-07T07:45:02.978Z,10.70
2023-04-07T07:47:32.968Z,11.40
2023-04-07T07:50:01.427Z,11.10
2023-04-07T07:52:29.767Z,10.47
2023-04-07T07:54:59.301Z,11.17
2023-04-07T07:57:27.690Z,11.00
2023-04-07T07:59:56.041Z,11.10
2023-04-07T08:02:29.945Z,11.03
2023-04-07T08:04:59.980Z,11.37
2023-04-07T08:07:29.146Z,11.40
2023-04-07T08:09:57.501Z,10.33
2023-04-07T08:12:26.644Z,10.10
2023-04-07T08:14:55.015Z,12.60
2023-04-07T08:17:23.378Z,11.13
2023-04-07T08:19:51.746Z,10.77
2023-04-07T08:22:21.446Z,11.17
2023-04-07T08:24:49.875Z,10.43
2023-04-07T08:27:18.383Z,10.23
2023-04-07T08:29:46.708Z,11.20
2023-04-07T08:32:15.449Z,11.17
2023-04-07T08:34:46.756Z,11.30
2023-04-07T08:37:15.151Z,10.80
2023-04-07T08:39:44.979Z,10.43
2023-04-07T08:42:14.374Z,10.50
2023-04-07T08:44:43.041Z,10.80
2023-04-07T08:47:12.112Z,11.60
2023-04-07T08:49:44.985Z,11.57
2023-04-07T08:52:16.622Z,10.90
2023-04-07T08:54:46.580Z,10.60
2023-04-07T08:57:15.850Z,11.60
2023-04-07T08:59:47.282Z,12.60
2023-04-07T09:02:16.637Z,11.83
2023-04-07T09:04:45.893Z,11.30
2023-04-07T09:07:14.162Z,12.30
2023-04-07T09:09:42.872Z,11.20
2023-04-07T09:12:13.440Z,12.23
2023-04-07T09:14:41.833Z,11.30
2023-04-07T09:17:10.128Z,11.10
2023-04-07T09:19:38.785Z,11.00
2023-04-07T09:22:08.437Z,11.47
2023-04-07T09:24:36.837Z,10.63
2023-04-07T09:27:16.933Z,11.87
2023-04-07T09:29:47.258Z,11.13
2023-04-07T09:32:37.337Z,11.60
2023-04-07T09:35:06.565Z,10.80
2023-04-07T09:37:34.990Z,10.93
2023-04-07T09:40:03.411Z,10.00
2023-04-07T09:42:36.254Z,10.40
2023-04-07T09:45:04.853Z,11.47
2023-04-07T09:47:34.141Z,12.00
2023-04-07T09:50:07.139Z,11.20
2023-04-07T09:52:54.056Z,12.20
2023-04-07T09:55:23.707Z,11.07
2023-04-07T09:57:55.515Z,11.20
2023-04-07T10:00:24.131Z,10.90
2023-04-07T10:02:53.473Z,11.20
2023-04-07T10:05:22.760Z,11.07
2023-04-07T10:07:51.584Z,10.77
2023-04-07T10:10:20.038Z,10.57
2023-04-07T10:12:55.590Z,9.57
2023-04-07T10:15:24.673Z,9.77
2023-04-07T10:17:57.005Z,9.43
2023-04-07T10:20:26.254Z,9.43
2023-04-07T10:22:57.089Z,9.83
2023-04-07T10:25:27.060Z,9.40
2023-04-07T10:28:01.781Z,9.20
2023-04-07T10:30:33.632Z,9.80
2023-04-07T10:33:02.506Z,9.90
2023-04-07T10:35:51.311Z,10.70
2023-04-07T10:38:19.864Z,10.53
2023-04-07T10:40:48.385Z,10.83
2023-04-07T10:43:39.066Z,10.70
2023-04-07T10:46:07.442Z,10.60
2023-04-07T10:48:36.382Z,11.03
2023-04-07T10:51:18.413Z,10.50
2023-04-07T10:54:16.986Z,11.57
2023-04-07T10:57:10.336Z,11.60
2023-04-07T10:59:43.082Z,11.47
2023-04-07T11:02:33.925Z,10.50
2023-04-07T11:05:02.871Z,11.30
2023-04-07T11:07:50.064Z,11.23
2023-04-07T11:10:19.613Z,11.47
2023-04-07T11:13:07.640Z,12.20
2023-04-07T11:15:40.727Z,11.23
2023-04-07T11:18:12.309Z,11.07
2023-04-07T11:20:48.914Z,10.63
2023-04-07T11:23:18.744Z,12.67
2023-04-07T11:25:48.364Z,12.10
2023-04-07T11:28:16.880Z,11.27
2023-04-07T11:30:52.917Z,11.47
2023-04-07T11:33:22.736Z,11.30
2023-04-07T11:35:56.947Z,12.13
2023-04-07T11:38:27.356Z,10.87
2023-04-07T11:40:56.769Z,11.43
2023-04-07T11:43:26.537Z,12.23
2023-04-07T11:46:10.852Z,11.70
2023-04-07T11:48:39.994Z,11.77
2023-04-07T11:51:08.976Z,11.23
2023-04-07T11:53:38.785Z,11.13
2023-04-07T11:56:10.099Z,10.50
2023-04-07T11:58:38.795Z,11.67
2023-04-07T12:01:10.356Z,12.10
2023-04-07T12:03:39.319Z,12.07
2023-04-07T12:06:07.827Z,10.97
2023-04-07T12:08:41.055Z,11.90
2023-04-07T12:11:09.405Z,11.07
2023-04-07T12:13:38.142Z,10.90
2023-04-07T12:16:06.852Z,10.93
2023-04-07T12:18:36.670Z,12.27
2023-04-07T12:21:05.645Z,11.63
2023-04-07T12:23:34.047Z,12.23
2023-04-07T12:26:02.557Z,10.30
2023-04-07T12:28:30.842Z,10.20
2023-04-07T12:30:59.272Z,10.10
2023-04-07T12:33:27.676Z,10.03
2023-04-07T12:35:58.135Z,10.53
2023-04-07T12:38:26.552Z,9.60
2023-04-07T12:40:54.804Z,9.93
2023-04-07T12:43:23.717Z,9.27
2023-04-07T12:45:52.079Z,10.30
2023-04-07T12:48:20.453Z,8.63
2023-04-07T12:50:48.696Z,9.63
2023-04-07T12:53:18.596Z,9.13
2023-04-07T12:55:50.137Z,8.87
2023-04-07T12:58:19.214Z,11.13
2023-04-07T13:00:48.627Z,11.17
2023-04-07T13:03:17.727Z,11.23
2023-04-07T13:05:46.325Z,13.10
2023-04-07T13:08:14.630Z,11.97
2023-04-07T13:10:44.449Z,11.90
2023-04-07T13:13:12.972Z,10.80
2023-04-07T13:15:41.442Z,13.90
2023-04-07T13:18:09.743Z,12.13
2023-04-07T13:20:38.144Z,12.00
2023-04-07T13:23:09.641Z,15.47
2023-04-07T13:25:38.383Z,48.77
2023-04-07T13:28:08.140Z,27.30
2023-04-07T13:30:36.482Z,23.77
2023-04-07T13:33:05.104Z,39.50
2023-04-07T13:35:36.104Z,19.50
2023-04-07T13:38:04.613Z,27.83
2023-04-07T13:40:32.919Z,16.27
2023-04-07T13:43:01.867Z,14.30
2023-04-07T13:45:31.599Z,12.80
2023-04-07T13:47:59.955Z,18.17
2023-04-07T13:50:29.124Z,11.70
2023-04-07T13:52:57.496Z,11.77
2023-04-07T13:55:25.941Z,11.17
2023-04-07T13:57:54.899Z,12.03
2023-04-07T14:00:23.261Z,16.37
2023-04-07T14:02:53.155Z,14.20
2023-04-07T14:05:21.776Z,15.03
2023-04-07T14:07:51.150Z,10.13
2023-04-07T14:10:19.796Z,11.17
2023-04-07T14:12:48.578Z,10.90
2023-04-07T14:15:18.384Z,10.90
2023-04-07T14:17:46.838Z,11.17
2023-04-07T14:20:16.794Z,10.80
2023-04-07T14:22:45.300Z,12.00
2023-04-07T14:25:13.636Z,10.53
2023-04-07T14:27:42.011Z,10.27
2023-04-07T14:30:11.677Z,10.23
2023-04-07T14:32:40.090Z,10.93
2023-04-07T14:35:09.383Z,10.37
2023-04-07T14:37:39.869Z,9.90
2023-04-07T14:40:09.500Z,9.67
2023-04-07T14:42:38.251Z,10.10
2023-04-07T14:45:07.696Z,10.80
2023-04-07T14:47:36.138Z,10.40
2023-04-07T14:50:04.505Z,10.73
2023-04-07T14:52:32.930Z,9.37
2023-04-07T14:55:02.926Z,10.73
2023-04-07T14:57:31.477Z,12.50
2023-04-07T14:59:59.765Z,17.17
2023-04-07T15:02:29.375Z,12.60
2023-04-07T15:04:58.037Z,11.87
2023-04-07T15:07:26.838Z,11.07
2023-04-07T15:09:55.490Z,10.90
2023-04-07T15:12:26.472Z,12.03
2023-04-07T15:14:55.034Z,12.80
2023-04-07T15:17:32.994Z,14.40
2023-04-07T15:20:05.332Z,13.23
2023-04-07T15:22:34.023Z,11.70
2023-04-07T15:25:03.444Z,14.00
2023-04-07T15:27:33.191Z,12.57
2023-04-07T15:30:01.587Z,11.80
2023-04-07T15:32:32.587Z,12.07
2023-04-07T15:35:01.119Z,12.57
2023-04-07T15:37:29.386Z,11.93
2023-04-07T15:39:57.675Z,13.33
2023-04-07T15:42:25.966Z,12.60
2023-04-07T15:44:55.786Z,12.47
2023-04-07T15:47:24.103Z,11.27
2023-04-07T15:49:52.559Z,13.67
2023-04-07T15:52:21.051Z,13.13
2023-04-07T15:54:49.390Z,14.67
2023-04-07T15:57:17.933Z,13.80
2023-04-07T15:59:46.500Z,14.67
2023-04-07T16:02:16.902Z,15.33
2023-04-07T16:04:47.491Z,15.40
2023-04-07T16:07:15.852Z,17.30
2023-04-07T16:09:44.386Z,15.70
2023-04-07T16:12:12.756Z,16.70
2023-04-07T16:14:41.244Z,16.50
2023-04-07T16:17:09.711Z,12.97
2023-04-07T16:19:39.552Z,13.17
2023-04-07T16:22:07.835Z,13.50
2023-04-07T16:24:37.469Z,14.63
2023-04-07T16:27:05.821Z,13.40
2023-04-07T16:29:34.215Z,13.10
2023-04-07T16:32:03.397Z,12.93
2023-04-07T16:34:32.401Z,13.43
2023-04-07T16:37:02.184Z,14.73
2023-04-07T16:39:30.738Z,13.03
2023-04-07T16:41:59.071Z,13.87
2023-04-07T16:44:27.421Z,13.40
2023-04-07T16:46:55.820Z,12.47
2023-04-07T16:49:24.354Z,13.60
2023-04-07T16:51:52.800Z,13.07
2023-04-07T16:54:22.709Z,13.00
2023-04-07T16:56:51.419Z,12.60
2023-04-07T16:59:19.741Z,14.37
2023-04-07T17:01:48.175Z,14.17
2023-04-07T17:04:16.684Z,15.63
2023-04-07T17:06:45.009Z,15.90
2023-04-07T17:09:16.173Z,14.07
2023-04-07T17:11:45.985Z,18.00
2023-04-07T17:14:14.336Z,18.47
2023-04-07T17:16:42.759Z,16.90
2023-04-07T17:19:11.210Z,14.90
2023-04-07T17:21:39.598Z,16.87
2023-04-07T17:24:08.392Z,15.30
2023-04-07T17:26:36.812Z,14.43
2023-04-07T17:29:06.530Z,12.80
2023-04-07T17:31:36.139Z,14.03
2023-04-07T17:34:04.566Z,15.47
2023-04-07T17:36:33.837Z,15.27
2023-04-07T17:39:03.246Z,17.10
2023-04-07T17:41:34.441Z,17.20
2023-04-07T17:44:03.325Z,16.40
2023-04-07T17:46:33.166Z,16.00
2023-04-07T17:49:02.125Z,17.13
2023-04-07T17:51:30.530Z,16.70
2023-04-07T17:53:58.904Z,15.33
2023-04-07T17:56:27.239Z,13.27
2023-04-07T17:58:55.835Z,11.83
2023-04-07T18:01:24.789Z,13.50
2023-04-07T18:03:55.734Z,13.90
2023-04-07T18:06:24.260Z,13.50
2023-04-07T18:08:52.698Z,14.00
2023-04-07T18:11:21.791Z,15.20
2023-04-07T18:13:50.725Z,14.93
2023-04-07T18:16:22.042Z,16.17
2023-04-07T18:18:50.773Z,17.30
2023-04-07T18:21:20.524Z,13.90
2023-04-07T18:23:48.992Z,11.50
2023-04-07T18:26:17.744Z,11.83
2023-04-07T18:28:46.626Z,11.70
2023-04-07T18:31:15.561Z,12.70
2023-04-07T18:33:43.975Z,13.37
2023-04-07T18:36:13.932Z,15.10
2023-04-07T18:38:43.724Z,16.23
2023-04-07T18:41:14.244Z,12.60
2023-04-07T18:43:42.761Z,12.20
2023-04-07T18:46:11.743Z,12.40
2023-04-07T18:48:41.003Z,13.03
2023-04-07T18:51:09.480Z,12.10
2023-04-07T18:53:38.112Z,12.60
2023-04-07T18:56:07.929Z,12.70
2023-04-07T18:58:43.792Z,12.80
2023-04-07T19:01:13.155Z,11.83
2023-04-07T19:03:42.071Z,11.93
2023-04-07T19:06:10.780Z,11.37
2023-04-07T19:08:39.805Z,13.43
2023-04-07T19:11:09.562Z,11.90
2023-04-07T19:13:37.888Z,12.37
2023-04-07T19:16:07.752Z,12.27
2023-04-07T19:18:36.798Z,15.33
2023-04-07T19:21:05.390Z,12.90
2023-04-07T19:23:33.756Z,13.07
2023-04-07T19:26:02.169Z,12.67
2023-04-07T19:28:33.877Z,13.73
2023-04-07T19:31:02.505Z,14.00
2023-04-07T19:33:30.874Z,14.50
2023-04-07T19:35:59.276Z,13.27
2023-04-07T19:38:27.801Z,13.77
2023-04-07T19:40:56.267Z,15.30
2023-04-07T19:43:24.788Z,15.20
2023-04-07T19:45:54.689Z,16.97
2023-04-07T19:48:23.557Z,15.50
2023-04-07T19:50:51.861Z,15.90
2023-04-07T19:53:22.444Z,14.70
2023-04-07T19:55:50.967Z,15.80
2023-04-07T19:58:21.830Z,15.60
2023-04-07T20:00:51.957Z,15.70
2023-04-07T20:03:22.103Z,14.50
2023-04-07T20:05:52.936Z,16.57
2023-04-07T20:08:21.504Z,16.53
2023-04-07T20:10:52.630Z,17.37
2023-04-07T20:13:21.221Z,16.60
2023-04-07T20:15:49.840Z,17.00
2023-04-07T20:18:18.702Z,16.40
2023-04-07T20:20:48.540Z,16.60
2023-04-07T20:23:22.193Z,16.27
2023-04-07T20:25:50.500Z,18.07
2023-04-07T20:28:18.835Z,18.20
2023-04-07T20:30:47.282Z,17.67
2023-04-07T20:33:15.733Z,17.90
2023-04-07T20:35:44.239Z,17.80
2023-04-07T20:38:14.892Z,17.67
2023-04-07T20:40:43.256Z,17.10
2023-04-07T20:43:11.795Z,21.63
2023-04-07T20:45:40.913Z,21.40
2023-04-07T20:48:09.477Z,19.77
2023-04-07T20:50:38.371Z,17.90
2023-04-07T20:53:06.942Z,19.83
2023-04-07T20:55:36.789Z,19.13
2023-04-07T20:58:05.585Z,21.87
2023-04-07T21:00:34.069Z,21.40
2023-04-07T21:03:02.826Z,19.20
2023-04-07T21:05:31.359Z,20.70
2023-04-07T21:07:59.664Z,25.10
2023-04-07T21:10:28.309Z,23.40
2023-04-07T21:12:58.069Z,20.83
2023-04-07T21:15:26.558Z,20.77
2023-04-07T21:17:55.003Z,19.40
2023-04-07T21:20:23.436Z,18.07
2023-04-07T21:22:51.768Z,18.10
2023-04-07T21:25:20.424Z,14.90
2023-04-07T21:27:48.752Z,17.63
2023-04-07T21:30:18.475Z,15.77
2023-04-07T21:32:47.264Z,15.57
2023-04-07T21:35:15.742Z,15.50
2023-04-07T21:37:44.091Z,15.47
2023-04-07T21:40:13.245Z,13.73
2023-04-07T21:42:41.892Z,15.37
2023-04-07T21:45:11.707Z,16.07
2023-04-07T21:47:41.900Z,18.43
2023-04-07T21:50:10.889Z,14.90
2023-04-07T21:52:39.520Z,13.43
2023-04-07T21:55:10.103Z,14.37
2023-04-07T21:57:38.577Z,13.67
2023-04-07T22:00:08.603Z,13.53
2023-04-07T22:02:37.358Z,15.73
2023-04-07T22:05:07.671Z,18.00
2023-04-07T22:07:36.229Z,19.40
2023-04-07T22:10:04.932Z,19.60
2023-04-07T22:12:33.416Z,17.10
2023-04-07T22:15:01.778Z,13.17
2023-04-07T22:17:30.225Z,13.83
2023-04-07T22:19:58.614Z,14.87
2023-04-07T22:22:28.375Z,14.73
2023-04-07T22:24:56.726Z,15.10
2023-04-07T22:27:25.076Z,14.63
2023-04-07T22:29:53.457Z,13.17
2023-04-07T22:32:21.903Z,14.37
2023-04-07T22:34:50.267Z,13.57
2023-04-07T22:37:19.453Z,13.23
2023-04-07T22:39:49.285Z,14.07
2023-04-07T22:42:17.660Z,13.07
2023-04-07T22:44:46.298Z,13.37
2023-04-07T22:47:14.631Z,14.23
2023-04-07T22:49:43.380Z,13.80
2023-04-07T22:52:13.817Z,15.30
2023-04-07T22:54:42.142Z,14.17
2023-04-07T22:57:11.879Z,13.93
2023-04-07T22:59:40.486Z,14.27
2023-04-07T23:02:08.900Z,13.20
2023-04-07T23:04:37.287Z,12.60
2023-04-07T23:07:05.800Z,12.60
2023-04-07T23:09:34.125Z,11.57
2023-04-07T23:12:02.766Z,10.57
2023-04-07T23:14:32.728Z,11.00
2023-04-07T23:17:01.310Z,11.20
2023-04-07T23:19:30.032Z,11.57
2023-04-07T23:21:58.354Z,10.53
2023-04-07T23:24:26.984Z,10.00
2023-04-07T23:26:56.040Z,10.57
2023-04-07T23:29:24.314Z,10.40
2023-04-07T23:31:54.455Z,10.50
2023-04-07T23:34:22.997Z,10.80
2023-04-07T23:36:51.771Z,10.60
2023-04-07T23:39:20.139Z,11.30
2023-04-07T23:41:48.464Z,10.27
2023-04-07T23:44:16.987Z,10.77
2023-04-07T23:46:45.396Z,10.03
2023-04-07T23:49:15.150Z,10.30
2023-04-07T23:51:43.835Z,10.63
2023-04-07T23:54:12.514Z,12.47
2023-04-07T23:56:40.966Z,10.83
2023-04-07T23:59:09.258Z,10.70
